KCNK/CNK METAR and TAF weather

Enter ICAO airport designator
Station Type Date Time Source
KCNK METAR 2019/06/24 22:55 UTC NOAA

KCNK 242255Z AUTO 21011G19KT 10SM CLR 29/13 A2980 RMK AO2 SLP080 T02940133


Station Type Date Time Source
KCNK Decoded METAR 2019/06/24 22:55 UTC NOAA

Concordia, Blosser Municipal Airport, KS, United States (KCNK) 39-33-05N 097-39-02W 447M
Jun 24, 2019 - 06:55 PM EDT / 2019.06.24 2255 UTC
Wind: from the SSW (210 degrees) at 13 MPH (11 KT) gusting to 22 MPH (19 KT):0
Visibility: 10 mile(s):0
Sky conditions: clear
Temperature: 84.9 F (29.4 C)
Dew Point: 55.9 F (13.3 C)
Relative Humidity: 37%
Pressure (altimeter): 29.8 in. Hg (1009 hPa)
ob: KCNK 242255Z AUTO 21011G19KT 10SM CLR 29/13 A2980 RMK AO2 SLP080 T02940133
cycle: 23

Station Type Date Time Source
KCNK TAF UTC NOAA

Error!

Example: see airport list